sensor_id;sensor_type;location;lat;lon;timestamp;P1;durP1;ratioP1;P2;durP2;ratioP2
69527;SDS011;57136;51.986;4.468;2022-09-30T00:02:18;13.30;;;9.52;;
69527;SDS011;57136;51.986;4.468;2022-09-30T00:04:44;12.38;;;9.13;;
69527;SDS011;57136;51.986;4.468;2022-09-30T00:07:10;12.45;;;8.65;;
69527;SDS011;57136;51.986;4.468;2022-09-30T00:09:35;11.00;;;8.13;;
69527;SDS011;57136;51.986;4.468;2022-09-30T00:12:01;12.20;;;8.85;;
69527;SDS011;57136;51.986;4.468;2022-09-30T00:14:26;11.90;;;8.77;;
69527;SDS011;57136;51.986;4.468;2022-09-30T00:16:51;17.50;;;9.18;;
69527;SDS011;57136;51.986;4.468;2022-09-30T00:19:17;11.70;;;8.70;;
69527;SDS011;57136;51.986;4.468;2022-09-30T00:21:42;12.88;;;9.70;;
69527;SDS011;57136;51.986;4.468;2022-09-30T00:24:08;11.88;;;9.27;;
69527;SDS011;57136;51.986;4.468;2022-09-30T00:26:33;14.48;;;9.25;;
69527;SDS011;57136;51.986;4.468;2022-09-30T00:29:00;11.75;;;8.95;;
69527;SDS011;57136;51.986;4.468;2022-09-30T00:31:27;13.13;;;9.40;;
69527;SDS011;57136;51.986;4.468;2022-09-30T00:33:55;11.13;;;8.82;;
69527;SDS011;57136;51.986;4.468;2022-09-30T00:36:34;12.23;;;8.43;;
69527;SDS011;57136;51.986;4.468;2022-09-30T00:38:59;11.63;;;8.77;;
69527;SDS011;57136;51.986;4.468;2022-09-30T00:41:25;14.15;;;8.82;;
69527;SDS011;57136;51.986;4.468;2022-09-30T00:43:50;9.93;;;8.13;;
69527;SDS011;57136;51.986;4.468;2022-09-30T00:46:31;13.15;;;8.88;;
69527;SDS011;57136;51.986;4.468;2022-09-30T00:48:58;14.50;;;9.20;;
69527;SDS011;57136;51.986;4.468;2022-09-30T00:51:30;11.57;;;8.60;;
69527;SDS011;57136;51.986;4.468;2022-09-30T00:54:00;11.93;;;8.75;;
69527;SDS011;57136;51.986;4.468;2022-09-30T00:56:33;10.73;;;8.45;;
69527;SDS011;57136;51.986;4.468;2022-09-30T01:01:31;11.60;;;8.40;;
69527;SDS011;57136;51.986;4.468;2022-09-30T01:04:02;13.13;;;9.32;;
69527;SDS011;57136;51.986;4.468;2022-09-30T01:06:30;13.70;;;9.73;;
69527;SDS011;57136;51.986;4.468;2022-09-30T01:08:56;12.73;;;9.68;;
69527;SDS011;57136;51.986;4.468;2022-09-30T01:11:26;14.35;;;10.02;;
69527;SDS011;57136;51.986;4.468;2022-09-30T01:13:53;13.35;;;9.60;;
69527;SDS011;57136;51.986;4.468;2022-09-30T01:27:11;12.63;;;8.82;;
69527;SDS011;57136;51.986;4.468;2022-09-30T01:35:16;13.50;;;8.98;;
69527;SDS011;57136;51.986;4.468;2022-09-30T01:37:51;11.93;;;8.35;;
69527;SDS011;57136;51.986;4.468;2022-09-30T01:43:10;12.15;;;8.07;;
69527;SDS011;57136;51.986;4.468;2022-09-30T01:46:16;11.43;;;8.30;;
69527;SDS011;57136;51.986;4.468;2022-09-30T01:48:41;11.38;;;8.15;;
69527;SDS011;57136;51.986;4.468;2022-09-30T01:56:20;12.20;;;9.27;;
69527;SDS011;57136;51.986;4.468;2022-09-30T01:58:53;14.63;;;9.88;;
69527;SDS011;57136;51.986;4.468;2022-09-30T02:01:25;13.00;;;8.48;;
69527;SDS011;57136;51.986;4.468;2022-09-30T02:06:24;11.05;;;8.13;;
69527;SDS011;57136;51.986;4.468;2022-09-30T02:08:59;12.52;;;8.70;;
69527;SDS011;57136;51.986;4.468;2022-09-30T02:17:38;14.38;;;8.32;;
69527;SDS011;57136;51.986;4.468;2022-09-30T02:19:51;12.00;;;8.75;;
69527;SDS011;57136;51.986;4.468;2022-09-30T02:22:33;10.40;;;7.72;;
69527;SDS011;57136;51.986;4.468;2022-09-30T02:25:07;12.27;;;8.52;;
69527;SDS011;57136;51.986;4.468;2022-09-30T02:27:38;12.98;;;8.60;;
69527;SDS011;57136;51.986;4.468;2022-09-30T02:30:09;12.68;;;8.90;;
69527;SDS011;57136;51.986;4.468;2022-09-30T02:32:59;11.95;;;8.13;;
69527;SDS011;57136;51.986;4.468;2022-09-30T02:35:35;10.85;;;8.18;;
69527;SDS011;57136;51.986;4.468;2022-09-30T02:38:22;12.60;;;7.60;;
69527;SDS011;57136;51.986;4.468;2022-09-30T02:40:57;11.85;;;7.95;;
69527;SDS011;57136;51.986;4.468;2022-09-30T02:43:30;11.57;;;8.52;;
69527;SDS011;57136;51.986;4.468;2022-09-30T02:46:04;14.35;;;8.90;;
69527;SDS011;57136;51.986;4.468;2022-09-30T02:54:06;12.80;;;8.90;;
69527;SDS011;57136;51.986;4.468;2022-09-30T02:56:39;14.05;;;8.32;;
69527;SDS011;57136;51.986;4.468;2022-09-30T03:01:34;14.13;;;8.63;;
69527;SDS011;57136;51.986;4.468;2022-09-30T03:04:05;11.75;;;7.57;;
69527;SDS011;57136;51.986;4.468;2022-09-30T03:06:33;11.57;;;8.65;;
69527;SDS011;57136;51.986;4.468;2022-09-30T03:09:00;12.18;;;8.82;;
69527;SDS011;57136;51.986;4.468;2022-09-30T03:11:26;12.27;;;9.00;;
69527;SDS011;57136;51.986;4.468;2022-09-30T03:13:54;13.35;;;8.57;;
69527;SDS011;57136;51.986;4.468;2022-09-30T03:17:05;12.63;;;9.82;;
69527;SDS011;57136;51.986;4.468;2022-09-30T03:20:03;11.85;;;8.98;;
69527;SDS011;57136;51.986;4.468;2022-09-30T03:22:58;15.32;;;9.45;;
69527;SDS011;57136;51.986;4.468;2022-09-30T03:25:43;14.15;;;9.70;;
69527;SDS011;57136;51.986;4.468;2022-09-30T03:28:32;12.82;;;8.65;;
69527;SDS011;57136;51.986;4.468;2022-09-30T03:31:03;13.48;;;8.52;;
69527;SDS011;57136;51.986;4.468;2022-09-30T03:36:33;11.38;;;9.00;;
69527;SDS011;57136;51.986;4.468;2022-09-30T03:41:43;14.57;;;9.40;;
69527;SDS011;57136;51.986;4.468;2022-09-30T03:47:03;13.57;;;9.73;;
69527;SDS011;57136;51.986;4.468;2022-09-30T03:49:49;12.15;;;9.52;;
69527;SDS011;57136;51.986;4.468;2022-09-30T03:52:18;13.60;;;9.88;;
69527;SDS011;57136;51.986;4.468;2022-09-30T03:54:53;12.60;;;9.55;;
69527;SDS011;57136;51.986;4.468;2022-09-30T03:57:24;15.27;;;10.02;;
69527;SDS011;57136;51.986;4.468;2022-09-30T03:59:50;13.65;;;10.00;;
69527;SDS011;57136;51.986;4.468;2022-09-30T04:02:15;13.40;;;10.65;;
69527;SDS011;57136;51.986;4.468;2022-09-30T04:04:41;16.05;;;10.77;;
69527;SDS011;57136;51.986;4.468;2022-09-30T04:07:07;16.88;;;11.55;;
69527;SDS011;57136;51.986;4.468;2022-09-30T04:09:34;16.17;;;11.35;;
69527;SDS011;57136;51.986;4.468;2022-09-30T04:11:59;15.95;;;10.73;;
69527;SDS011;57136;51.986;4.468;2022-09-30T04:14:25;15.93;;;10.88;;
69527;SDS011;57136;51.986;4.468;2022-09-30T04:16:50;17.83;;;12.95;;
69527;SDS011;57136;51.986;4.468;2022-09-30T04:19:15;17.10;;;12.43;;
69527;SDS011;57136;51.986;4.468;2022-09-30T04:21:41;18.25;;;12.57;;
69527;SDS011;57136;51.986;4.468;2022-09-30T04:24:06;21.73;;;13.35;;
69527;SDS011;57136;51.986;4.468;2022-09-30T04:26:32;18.88;;;12.82;;
69527;SDS011;57136;51.986;4.468;2022-09-30T04:28:57;17.52;;;12.35;;
69527;SDS011;57136;51.986;4.468;2022-09-30T04:31:23;17.20;;;13.00;;
69527;SDS011;57136;51.986;4.468;2022-09-30T04:33:48;20.33;;;13.68;;
69527;SDS011;57136;51.986;4.468;2022-09-30T04:36:14;20.05;;;14.05;;
69527;SDS011;57136;51.986;4.468;2022-09-30T04:38:40;20.73;;;14.55;;
69527;SDS011;57136;51.986;4.468;2022-09-30T04:41:06;22.13;;;14.93;;
69527;SDS011;57136;51.986;4.468;2022-09-30T04:43:31;23.90;;;15.50;;
69527;SDS011;57136;51.986;4.468;2022-09-30T04:45:58;25.45;;;15.48;;
69527;SDS011;57136;51.986;4.468;2022-09-30T04:48:24;22.40;;;14.88;;
69527;SDS011;57136;51.986;4.468;2022-09-30T04:50:51;24.27;;;16.50;;
69527;SDS011;57136;51.986;4.468;2022-09-30T04:53:18;23.38;;;15.05;;
69527;SDS011;57136;51.986;4.468;2022-09-30T04:55:43;24.63;;;14.98;;
69527;SDS011;57136;51.986;4.468;2022-09-30T04:58:09;21.90;;;15.30;;
69527;SDS011;57136;51.986;4.468;2022-09-30T05:00:36;25.17;;;15.95;;
69527;SDS011;57136;51.986;4.468;2022-09-30T05:03:02;21.63;;;14.88;;
69527;SDS011;57136;51.986;4.468;2022-09-30T05:05:27;23.42;;;16.55;;
69527;SDS011;57136;51.986;4.468;2022-09-30T05:07:58;23.15;;;16.20;;
69527;SDS011;57136;51.986;4.468;2022-09-30T05:10:24;22.73;;;17.00;;
69527;SDS011;57136;51.986;4.468;2022-09-30T05:12:51;26.90;;;16.58;;
69527;SDS011;57136;51.986;4.468;2022-09-30T05:15:17;24.15;;;17.90;;
69527;SDS011;57136;51.986;4.468;2022-09-30T05:17:42;25.55;;;17.02;;
69527;SDS011;57136;51.986;4.468;2022-09-30T05:20:08;28.20;;;16.98;;
69527;SDS011;57136;51.986;4.468;2022-09-30T05:22:35;26.65;;;16.45;;
69527;SDS011;57136;51.986;4.468;2022-09-30T05:25:00;25.65;;;16.17;;
69527;SDS011;57136;51.986;4.468;2022-09-30T05:27:27;24.55;;;17.25;;
69527;SDS011;57136;51.986;4.468;2022-09-30T05:29:53;23.98;;;17.17;;
69527;SDS011;57136;51.986;4.468;2022-09-30T05:32:18;26.75;;;16.60;;
69527;SDS011;57136;51.986;4.468;2022-09-30T05:34:45;28.38;;;16.85;;
69527;SDS011;57136;51.986;4.468;2022-09-30T05:37:11;24.23;;;16.90;;
69527;SDS011;57136;51.986;4.468;2022-09-30T05:39:36;27.55;;;17.70;;
69527;SDS011;57136;51.986;4.468;2022-09-30T05:42:01;28.77;;;17.88;;
69527;SDS011;57136;51.986;4.468;2022-09-30T05:44:27;26.13;;;17.65;;
69527;SDS011;57136;51.986;4.468;2022-09-30T05:46:52;25.90;;;18.23;;
69527;SDS011;57136;51.986;4.468;2022-09-30T05:49:17;29.95;;;18.58;;
69527;SDS011;57136;51.986;4.468;2022-09-30T05:51:43;26.90;;;18.40;;
69527;SDS011;57136;51.986;4.468;2022-09-30T05:54:09;31.15;;;19.35;;
69527;SDS011;57136;51.986;4.468;2022-09-30T05:56:35;27.75;;;19.55;;
69527;SDS011;57136;51.986;4.468;2022-09-30T05:59:02;31.88;;;19.52;;
69527;SDS011;57136;51.986;4.468;2022-09-30T06:01:29;30.50;;;21.08;;
69527;SDS011;57136;51.986;4.468;2022-09-30T06:03:54;34.25;;;21.15;;
69527;SDS011;57136;51.986;4.468;2022-09-30T06:06:19;37.17;;;22.00;;
69527;SDS011;57136;51.986;4.468;2022-09-30T06:08:45;31.45;;;20.80;;
69527;SDS011;57136;51.986;4.468;2022-09-30T06:11:11;34.72;;;20.88;;
69527;SDS011;57136;51.986;4.468;2022-09-30T06:13:45;32.38;;;19.65;;
69527;SDS011;57136;51.986;4.468;2022-09-30T06:16:11;35.70;;;21.02;;
69527;SDS011;57136;51.986;4.468;2022-09-30T06:18:37;34.90;;;22.85;;
69527;SDS011;57136;51.986;4.468;2022-09-30T06:21:05;35.45;;;21.65;;
69527;SDS011;57136;51.986;4.468;2022-09-30T06:23:32;33.25;;;22.60;;
69527;SDS011;57136;51.986;4.468;2022-09-30T06:25:59;33.08;;;21.17;;
69527;SDS011;57136;51.986;4.468;2022-09-30T06:28:25;35.78;;;22.23;;
69527;SDS011;57136;51.986;4.468;2022-09-30T06:30:51;40.22;;;23.25;;
69527;SDS011;57136;51.986;4.468;2022-09-30T06:33:16;38.10;;;23.33;;
69527;SDS011;57136;51.986;4.468;2022-09-30T06:35:42;36.80;;;23.08;;
69527;SDS011;57136;51.986;4.468;2022-09-30T06:38:08;38.50;;;24.40;;
69527;SDS011;57136;51.986;4.468;2022-09-30T06:40:34;38.92;;;23.60;;
69527;SDS011;57136;51.986;4.468;2022-09-30T06:42:59;39.35;;;23.55;;
69527;SDS011;57136;51.986;4.468;2022-09-30T06:45:26;41.03;;;24.27;;
69527;SDS011;57136;51.986;4.468;2022-09-30T06:47:56;43.83;;;25.00;;
69527;SDS011;57136;51.986;4.468;2022-09-30T06:50:22;41.80;;;26.15;;
69527;SDS011;57136;51.986;4.468;2022-09-30T06:52:47;42.08;;;24.05;;
69527;SDS011;57136;51.986;4.468;2022-09-30T06:55:13;38.47;;;23.85;;
69527;SDS011;57136;51.986;4.468;2022-09-30T06:57:39;47.38;;;26.33;;
69527;SDS011;57136;51.986;4.468;2022-09-30T07:00:05;36.92;;;22.52;;
69527;SDS011;57136;51.986;4.468;2022-09-30T07:02:31;36.70;;;22.75;;
69527;SDS011;57136;51.986;4.468;2022-09-30T07:04:58;32.30;;;20.33;;
69527;SDS011;57136;51.986;4.468;2022-09-30T07:07:24;33.17;;;22.67;;
69527;SDS011;57136;51.986;4.468;2022-09-30T07:09:49;35.78;;;22.05;;
69527;SDS011;57136;51.986;4.468;2022-09-30T07:12:15;34.20;;;22.27;;
69527;SDS011;57136;51.986;4.468;2022-09-30T07:14:41;35.30;;;23.00;;
69527;SDS011;57136;51.986;4.468;2022-09-30T07:17:06;36.58;;;22.15;;
69527;SDS011;57136;51.986;4.468;2022-09-30T07:19:32;34.33;;;20.92;;
69527;SDS011;57136;51.986;4.468;2022-09-30T07:21:59;33.78;;;23.05;;
69527;SDS011;57136;51.986;4.468;2022-09-30T07:24:45;32.40;;;20.67;;
69527;SDS011;57136;51.986;4.468;2022-09-30T07:27:10;29.83;;;19.33;;
69527;SDS011;57136;51.986;4.468;2022-09-30T07:29:37;28.08;;;17.77;;
69527;SDS011;57136;51.986;4.468;2022-09-30T07:32:07;26.48;;;17.33;;
69527;SDS011;57136;51.986;4.468;2022-09-30T07:34:32;24.15;;;16.52;;
69527;SDS011;57136;51.986;4.468;2022-09-30T07:36:58;23.65;;;16.00;;
69527;SDS011;57136;51.986;4.468;2022-09-30T07:39:23;19.58;;;14.20;;
69527;SDS011;57136;51.986;4.468;2022-09-30T07:41:49;19.63;;;13.80;;
69527;SDS011;57136;51.986;4.468;2022-09-30T07:44:14;17.52;;;13.32;;
69527;SDS011;57136;51.986;4.468;2022-09-30T07:46:40;16.60;;;12.30;;
69527;SDS011;57136;51.986;4.468;2022-09-30T07:49:07;14.73;;;10.85;;
69527;SDS011;57136;51.986;4.468;2022-09-30T07:51:38;15.15;;;11.07;;
69527;SDS011;57136;51.986;4.468;2022-09-30T07:54:06;13.52;;;9.52;;
69527;SDS011;57136;51.986;4.468;2022-09-30T07:56:37;14.23;;;9.13;;
69527;SDS011;57136;51.986;4.468;2022-09-30T07:59:04;13.15;;;8.95;;
69527;SDS011;57136;51.986;4.468;2022-09-30T08:01:30;11.57;;;8.52;;
69527;SDS011;57136;51.986;4.468;2022-09-30T08:03:57;13.55;;;8.63;;
69527;SDS011;57136;51.986;4.468;2022-09-30T08:06:25;12.70;;;8.35;;
69527;SDS011;57136;51.986;4.468;2022-09-30T08:08:52;10.63;;;7.63;;
69527;SDS011;57136;51.986;4.468;2022-09-30T08:11:19;8.02;;;6.93;;
69527;SDS011;57136;51.986;4.468;2022-09-30T08:13:49;10.70;;;7.25;;
69527;SDS011;57136;51.986;4.468;2022-09-30T08:16:16;9.25;;;6.80;;
69527;SDS011;57136;51.986;4.468;2022-09-30T08:18:42;9.55;;;6.18;;
69527;SDS011;57136;51.986;4.468;2022-09-30T08:21:07;7.18;;;6.10;;
69527;SDS011;57136;51.986;4.468;2022-09-30T08:23:33;9.85;;;6.70;;
69527;SDS011;57136;51.986;4.468;2022-09-30T08:26:03;10.25;;;5.97;;
69527;SDS011;57136;51.986;4.468;2022-09-30T08:28:30;7.03;;;5.65;;
69527;SDS011;57136;51.986;4.468;2022-09-30T08:31:02;7.05;;;5.20;;
69527;SDS011;57136;51.986;4.468;2022-09-30T08:33:44;6.10;;;5.50;;
69527;SDS011;57136;51.986;4.468;2022-09-30T08:36:11;7.35;;;4.70;;
69527;SDS011;57136;51.986;4.468;2022-09-30T08:38:38;7.30;;;5.07;;
69527;SDS011;57136;51.986;4.468;2022-09-30T08:41:08;6.88;;;4.78;;
69527;SDS011;57136;51.986;4.468;2022-09-30T08:49:24;3.80;;;2.95;;
69527;SDS011;57136;51.986;4.468;2022-09-30T08:52:09;5.60;;;3.25;;
69527;SDS011;57136;51.986;4.468;2022-09-30T08:54:38;4.05;;;3.08;;
69527;SDS011;57136;51.986;4.468;2022-09-30T08:57:09;4.60;;;3.22;;
69527;SDS011;57136;51.986;4.468;2022-09-30T08:59:51;4.97;;;2.47;;
69527;SDS011;57136;51.986;4.468;2022-09-30T09:02:33;2.70;;;2.38;;
69527;SDS011;57136;51.986;4.468;2022-09-30T09:05:05;5.03;;;2.13;;
69527;SDS011;57136;51.986;4.468;2022-09-30T09:10:53;3.75;;;1.63;;
69527;SDS011;57136;51.986;4.468;2022-09-30T09:13:19;3.80;;;1.63;;
69527;SDS011;57136;51.986;4.468;2022-09-30T09:21:01;3.20;;;1.65;;
69527;SDS011;57136;51.986;4.468;2022-09-30T09:23:38;4.03;;;1.60;;
69527;SDS011;57136;51.986;4.468;2022-09-30T09:26:03;1.73;;;1.40;;
69527;SDS011;57136;51.986;4.468;2022-09-30T09:28:48;2.17;;;1.70;;
69527;SDS011;57136;51.986;4.468;2022-09-30T09:31:23;2.55;;;1.70;;
69527;SDS011;57136;51.986;4.468;2022-09-30T09:33:49;2.67;;;2.35;;
69527;SDS011;57136;51.986;4.468;2022-09-30T09:46:48;3.17;;;1.80;;
69527;SDS011;57136;51.986;4.468;2022-09-30T09:51:47;4.80;;;2.13;;
69527;SDS011;57136;51.986;4.468;2022-09-30T09:54:14;3.08;;;2.78;;
69527;SDS011;57136;51.986;4.468;2022-09-30T09:56:43;3.88;;;2.58;;
69527;SDS011;57136;51.986;4.468;2022-09-30T09:59:15;2.97;;;2.67;;
69527;SDS011;57136;51.986;4.468;2022-09-30T10:01:43;3.83;;;2.07;;
69527;SDS011;57136;51.986;4.468;2022-09-30T10:04:15;4.18;;;1.95;;
69527;SDS011;57136;51.986;4.468;2022-09-30T10:07:00;5.30;;;2.15;;
69527;SDS011;57136;51.986;4.468;2022-09-30T10:09:36;2.70;;;1.80;;
69527;SDS011;57136;51.986;4.468;2022-09-30T10:14:32;4.53;;;1.60;;
69527;SDS011;57136;51.986;4.468;2022-09-30T10:17:02;2.50;;;1.40;;
69527;SDS011;57136;51.986;4.468;2022-09-30T10:19:30;3.97;;;1.60;;
69527;SDS011;57136;51.986;4.468;2022-09-30T10:24:32;1.52;;;1.35;;
69527;SDS011;57136;51.986;4.468;2022-09-30T10:26:59;1.75;;;1.33;;
69527;SDS011;57136;51.986;4.468;2022-09-30T10:29:29;1.75;;;1.30;;
69527;SDS011;57136;51.986;4.468;2022-09-30T10:31:56;1.85;;;1.33;;
69527;SDS011;57136;51.986;4.468;2022-09-30T10:34:28;2.28;;;1.10;;
69527;SDS011;57136;51.986;4.468;2022-09-30T10:36:58;3.25;;;1.15;;
69527;SDS011;57136;51.986;4.468;2022-09-30T10:42:01;2.20;;;1.35;;
69527;SDS011;57136;51.986;4.468;2022-09-30T10:44:40;1.65;;;1.23;;
69527;SDS011;57136;51.986;4.468;2022-09-30T10:47:08;1.65;;;1.30;;
69527;SDS011;57136;51.986;4.468;2022-09-30T10:52:29;3.92;;;1.80;;
69527;SDS011;57136;51.986;4.468;2022-09-30T10:54:58;2.83;;;2.08;;
69527;SDS011;57136;51.986;4.468;2022-09-30T10:57:31;3.85;;;2.38;;
69527;SDS011;57136;51.986;4.468;2022-09-30T11:00:05;6.05;;;3.00;;
69527;SDS011;57136;51.986;4.468;2022-09-30T11:02:37;4.75;;;3.00;;
69527;SDS011;57136;51.986;4.468;2022-09-30T11:07:45;5.30;;;2.55;;
69527;SDS011;57136;51.986;4.468;2022-09-30T11:11:05;5.03;;;2.88;;
69527;SDS011;57136;51.986;4.468;2022-09-30T11:13:05;4.85;;;2.70;;
69527;SDS011;57136;51.986;4.468;2022-09-30T11:15:39;6.30;;;2.60;;
69527;SDS011;57136;51.986;4.468;2022-09-30T11:18:24;4.47;;;2.72;;
69527;SDS011;57136;51.986;4.468;2022-09-30T11:20:59;5.25;;;3.30;;
69527;SDS011;57136;51.986;4.468;2022-09-30T11:23:32;3.78;;;2.65;;
69527;SDS011;57136;51.986;4.468;2022-09-30T11:26:05;3.63;;;3.30;;
69527;SDS011;57136;51.986;4.468;2022-09-30T11:31:19;6.22;;;3.00;;
69527;SDS011;57136;51.986;4.468;2022-09-30T11:33:57;4.75;;;3.33;;
69527;SDS011;57136;51.986;4.468;2022-09-30T11:36:36;4.53;;;3.05;;
69527;SDS011;57136;51.986;4.468;2022-09-30T11:42:38;4.68;;;3.50;;
69527;SDS011;57136;51.986;4.468;2022-09-30T11:44:53;3.67;;;3.10;;
69527;SDS011;57136;51.986;4.468;2022-09-30T11:47:32;3.30;;;2.80;;
69527;SDS011;57136;51.986;4.468;2022-09-30T11:50:06;3.60;;;2.78;;
69527;SDS011;57136;51.986;4.468;2022-09-30T11:52:57;3.90;;;2.25;;
69527;SDS011;57136;51.986;4.468;2022-09-30T11:55:33;2.30;;;2.08;;
69527;SDS011;57136;51.986;4.468;2022-09-30T11:58:22;2.38;;;1.90;;
69527;SDS011;57136;51.986;4.468;2022-09-30T12:01:03;2.95;;;1.67;;
69527;SDS011;57136;51.986;4.468;2022-09-30T12:04:13;3.25;;;1.67;;
69527;SDS011;57136;51.986;4.468;2022-09-30T12:06:41;3.17;;;1.80;;
69527;SDS011;57136;51.986;4.468;2022-09-30T12:12:30;3.45;;;2.00;;
69527;SDS011;57136;51.986;4.468;2022-09-30T12:15:04;4.75;;;2.20;;
69527;SDS011;57136;51.986;4.468;2022-09-30T12:18:05;3.45;;;1.98;;
69527;SDS011;57136;51.986;4.468;2022-09-30T12:20:36;6.43;;;2.53;;
69527;SDS011;57136;51.986;4.468;2022-09-30T12:25:55;5.18;;;2.78;;
69527;SDS011;57136;51.986;4.468;2022-09-30T12:31:30;5.32;;;2.58;;
69527;SDS011;57136;51.986;4.468;2022-09-30T12:34:23;8.63;;;2.55;;
69527;SDS011;57136;51.986;4.468;2022-09-30T12:48:06;5.50;;;2.35;;
69527;SDS011;57136;51.986;4.468;2022-09-30T12:53:11;3.45;;;2.33;;
69527;SDS011;57136;51.986;4.468;2022-09-30T12:55:43;5.32;;;1.95;;
69527;SDS011;57136;51.986;4.468;2022-09-30T12:58:20;2.22;;;1.80;;
69527;SDS011;57136;51.986;4.468;2022-09-30T13:01:06;3.85;;;2.10;;
69527;SDS011;57136;51.986;4.468;2022-09-30T13:03:45;3.05;;;1.95;;
69527;SDS011;57136;51.986;4.468;2022-09-30T13:19:42;2.05;;;1.60;;
69527;SDS011;57136;51.986;4.468;2022-09-30T13:22:52;2.58;;;1.95;;
69527;SDS011;57136;51.986;4.468;2022-09-30T13:25:11;3.40;;;1.80;;
69527;SDS011;57136;51.986;4.468;2022-09-30T13:30:30;2.53;;;1.73;;
69527;SDS011;57136;51.986;4.468;2022-09-30T13:35:30;3.17;;;1.60;;
69527;SDS011;57136;51.986;4.468;2022-09-30T13:40:39;2.83;;;2.10;;
69527;SDS011;57136;51.986;4.468;2022-09-30T13:44:02;2.85;;;2.03;;
69527;SDS011;57136;51.986;4.468;2022-09-30T13:46:05;5.30;;;2.75;;
69527;SDS011;57136;51.986;4.468;2022-09-30T13:48:37;4.80;;;2.85;;
69527;SDS011;57136;51.986;4.468;2022-09-30T13:51:09;3.83;;;2.80;;
69527;SDS011;57136;51.986;4.468;2022-09-30T13:56:29;3.55;;;2.22;;
69527;SDS011;57136;51.986;4.468;2022-09-30T14:07:54;2.38;;;2.05;;
69527;SDS011;57136;51.986;4.468;2022-09-30T14:10:51;4.15;;;2.83;;
69527;SDS011;57136;51.986;4.468;2022-09-30T14:16:39;6.55;;;3.47;;
69527;SDS011;57136;51.986;4.468;2022-09-30T14:22:53;5.15;;;3.85;;
69527;SDS011;57136;51.986;4.468;2022-09-30T14:25:20;4.15;;;3.10;;
69527;SDS011;57136;51.986;4.468;2022-09-30T14:27:51;7.30;;;3.40;;
69527;SDS011;57136;51.986;4.468;2022-09-30T14:30:22;4.53;;;3.10;;
69527;SDS011;57136;51.986;4.468;2022-09-30T14:32:52;4.88;;;3.08;;
69527;SDS011;57136;51.986;4.468;2022-09-30T14:35:25;4.45;;;3.20;;
69527;SDS011;57136;51.986;4.468;2022-09-30T14:37:54;4.47;;;4.07;;
69527;SDS011;57136;51.986;4.468;2022-09-30T14:40:27;5.80;;;4.43;;
69527;SDS011;57136;51.986;4.468;2022-09-30T14:43:01;5.03;;;4.53;;
69527;SDS011;57136;51.986;4.468;2022-09-30T14:45:34;5.50;;;4.55;;
69527;SDS011;57136;51.986;4.468;2022-09-30T14:48:04;6.63;;;4.70;;
69527;SDS011;57136;51.986;4.468;2022-09-30T14:50:41;7.30;;;5.22;;
69527;SDS011;57136;51.986;4.468;2022-09-30T14:53:24;7.55;;;5.53;;
69527;SDS011;57136;51.986;4.468;2022-09-30T14:55:51;6.72;;;5.35;;
69527;SDS011;57136;51.986;4.468;2022-09-30T14:58:27;7.53;;;5.53;;
69527;SDS011;57136;51.986;4.468;2022-09-30T15:01:16;6.78;;;4.32;;
69527;SDS011;57136;51.986;4.468;2022-09-30T15:03:50;5.40;;;4.55;;
69527;SDS011;57136;51.986;4.468;2022-09-30T15:06:22;6.35;;;4.90;;
69527;SDS011;57136;51.986;4.468;2022-09-30T15:08:52;7.72;;;4.88;;
69527;SDS011;57136;51.986;4.468;2022-09-30T15:11:25;6.85;;;5.40;;
69527;SDS011;57136;51.986;4.468;2022-09-30T15:13:59;6.20;;;4.78;;
69527;SDS011;57136;51.986;4.468;2022-09-30T15:16:29;5.63;;;4.57;;
69527;SDS011;57136;51.986;4.468;2022-09-30T15:18:55;5.72;;;4.38;;
69527;SDS011;57136;51.986;4.468;2022-09-30T15:21:22;5.72;;;4.38;;
69527;SDS011;57136;51.986;4.468;2022-09-30T15:23:52;5.00;;;4.35;;
69527;SDS011;57136;51.986;4.468;2022-09-30T15:26:20;5.85;;;4.18;;
69527;SDS011;57136;51.986;4.468;2022-09-30T15:28:48;4.28;;;3.88;;
69527;SDS011;57136;51.986;4.468;2022-09-30T15:31:22;6.07;;;4.20;;
69527;SDS011;57136;51.986;4.468;2022-09-30T15:33:59;6.45;;;4.53;;
69527;SDS011;57136;51.986;4.468;2022-09-30T15:36:26;4.63;;;3.78;;
69527;SDS011;57136;51.986;4.468;2022-09-30T15:38:51;5.40;;;4.05;;
69527;SDS011;57136;51.986;4.468;2022-09-30T15:41:17;4.57;;;3.92;;
69527;SDS011;57136;51.986;4.468;2022-09-30T15:43:46;4.70;;;3.65;;
69527;SDS011;57136;51.986;4.468;2022-09-30T15:46:29;5.85;;;3.80;;
69527;SDS011;57136;51.986;4.468;2022-09-30T15:49:03;6.38;;;4.20;;
69527;SDS011;57136;51.986;4.468;2022-09-30T15:51:35;5.10;;;3.70;;
69527;SDS011;57136;51.986;4.468;2022-09-30T15:56:40;7.80;;;3.85;;
69527;SDS011;57136;51.986;4.468;2022-09-30T15:59:06;6.97;;;4.03;;
69527;SDS011;57136;51.986;4.468;2022-09-30T16:01:36;4.68;;;3.72;;
69527;SDS011;57136;51.986;4.468;2022-09-30T16:04:03;3.88;;;3.33;;
69527;SDS011;57136;51.986;4.468;2022-09-30T16:09:25;6.10;;;4.05;;
69527;SDS011;57136;51.986;4.468;2022-09-30T16:14:48;7.57;;;3.70;;
69527;SDS011;57136;51.986;4.468;2022-09-30T16:17:22;6.13;;;3.72;;
69527;SDS011;57136;51.986;4.468;2022-09-30T16:19:53;6.18;;;3.45;;
69527;SDS011;57136;51.986;4.468;2022-09-30T16:27:44;6.13;;;3.45;;
69527;SDS011;57136;51.986;4.468;2022-09-30T16:30:17;3.80;;;2.85;;
69527;SDS011;57136;51.986;4.468;2022-09-30T16:32:47;6.00;;;3.20;;
69527;SDS011;57136;51.986;4.468;2022-09-30T16:35:19;3.75;;;2.85;;
69527;SDS011;57136;51.986;4.468;2022-09-30T16:37:46;3.97;;;3.30;;
69527;SDS011;57136;51.986;4.468;2022-09-30T16:42:43;3.80;;;3.28;;
69527;SDS011;57136;51.986;4.468;2022-09-30T16:45:10;2.90;;;2.70;;
69527;SDS011;57136;51.986;4.468;2022-09-30T16:47:38;5.53;;;3.40;;
69527;SDS011;57136;51.986;4.468;2022-09-30T16:50:13;3.78;;;2.90;;
69527;SDS011;57136;51.986;4.468;2022-09-30T16:52:42;4.35;;;3.25;;
69527;SDS011;57136;51.986;4.468;2022-09-30T16:55:08;5.22;;;3.17;;
69527;SDS011;57136;51.986;4.468;2022-09-30T16:57:33;6.20;;;3.05;;
69527;SDS011;57136;51.986;4.468;2022-09-30T16:59:58;4.85;;;2.92;;
69527;SDS011;57136;51.986;4.468;2022-09-30T17:02:24;4.07;;;2.92;;
69527;SDS011;57136;51.986;4.468;2022-09-30T17:04:50;3.42;;;2.72;;
69527;SDS011;57136;51.986;4.468;2022-09-30T17:07:15;4.40;;;3.22;;
69527;SDS011;57136;51.986;4.468;2022-09-30T17:09:40;5.22;;;2.65;;
69527;SDS011;57136;51.986;4.468;2022-09-30T17:12:07;5.32;;;2.83;;
69527;SDS011;57136;51.986;4.468;2022-09-30T17:14:32;5.53;;;2.90;;
69527;SDS011;57136;51.986;4.468;2022-09-30T17:16:57;6.13;;;3.10;;
69527;SDS011;57136;51.986;4.468;2022-09-30T17:19:23;3.47;;;2.70;;
69527;SDS011;57136;51.986;4.468;2022-09-30T17:21:48;6.30;;;3.40;;
69527;SDS011;57136;51.986;4.468;2022-09-30T17:24:14;6.25;;;2.88;;
69527;SDS011;57136;51.986;4.468;2022-09-30T17:26:39;5.72;;;3.03;;
69527;SDS011;57136;51.986;4.468;2022-09-30T17:29:05;4.28;;;3.20;;
69527;SDS011;57136;51.986;4.468;2022-09-30T17:31:31;6.53;;;3.10;;
69527;SDS011;57136;51.986;4.468;2022-09-30T17:33:56;4.07;;;2.90;;
69527;SDS011;57136;51.986;4.468;2022-09-30T17:36:21;5.10;;;3.30;;
69527;SDS011;57136;51.986;4.468;2022-09-30T17:38:47;6.47;;;2.95;;
69527;SDS011;57136;51.986;4.468;2022-09-30T17:41:17;3.63;;;2.88;;
69527;SDS011;57136;51.986;4.468;2022-09-30T17:44:01;5.00;;;2.75;;
69527;SDS011;57136;51.986;4.468;2022-09-30T17:46:26;4.00;;;2.85;;
69527;SDS011;57136;51.986;4.468;2022-09-30T17:48:55;5.80;;;3.00;;
69527;SDS011;57136;51.986;4.468;2022-09-30T17:51:20;4.57;;;2.80;;
69527;SDS011;57136;51.986;4.468;2022-09-30T17:53:46;3.05;;;2.55;;
69527;SDS011;57136;51.986;4.468;2022-09-30T17:56:13;4.35;;;3.10;;